createdAt,value
2022-10-20T00:01:28.481Z,53.70
2022-10-20T00:03:58.065Z,53.60
2022-10-20T00:06:33.034Z,53.70
2022-10-20T00:09:02.364Z,53.70
2022-10-20T00:11:32.142Z,53.90
2022-10-20T00:14:03.181Z,53.90
2022-10-20T00:16:32.504Z,53.80
2022-10-20T00:18:59.933Z,53.90
2022-10-20T00:21:28.686Z,53.90
2022-10-20T00:24:00.381Z,53.90
2022-10-20T00:26:27.762Z,53.80
2022-10-20T00:28:57.984Z,54.60
2022-10-20T00:31:26.710Z,53.70
2022-10-20T00:33:54.337Z,53.80
2022-10-20T00:36:23.144Z,53.80
2022-10-20T00:38:53.707Z,53.90
2022-10-20T00:41:21.731Z,53.80
2022-10-20T00:43:54.731Z,53.80
2022-10-20T00:46:24.795Z,54.10
2022-10-20T00:48:58.086Z,54.00
2022-10-20T00:51:28.224Z,54.00
2022-10-20T00:54:02.426Z,53.80
2022-10-20T00:56:30.081Z,53.90
2022-10-20T00:58:57.648Z,54.20
2022-10-20T01:01:25.563Z,54.00
2022-10-20T01:03:53.411Z,54.10
2022-10-20T01:06:24.259Z,54.00
2022-10-20T01:08:55.272Z,54.10
2022-10-20T01:11:34.688Z,54.10
2022-10-20T01:14:08.985Z,54.10
2022-10-20T01:16:58.330Z,54.20
2022-10-20T01:19:59.010Z,54.00
2022-10-20T01:22:44.869Z,54.40
2022-10-20T01:25:41.764Z,54.50
2022-10-20T01:28:18.567Z,54.40
2022-10-20T01:30:55.662Z,54.20
2022-10-20T01:33:41.407Z,54.00
2022-10-20T01:36:31.464Z,54.00
2022-10-20T01:39:08.055Z,54.10
2022-10-20T01:41:45.170Z,54.20
2022-10-20T01:44:19.084Z,54.20
2022-10-20T01:46:47.194Z,54.40
2022-10-20T01:49:18.376Z,54.30
2022-10-20T01:51:47.861Z,54.50
2022-10-20T01:54:28.211Z,54.40
2022-10-20T01:57:08.922Z,54.30
2022-10-20T01:59:54.189Z,54.30
2022-10-20T02:02:41.747Z,54.20
2022-10-20T02:05:24.120Z,54.20
2022-10-20T02:07:58.424Z,54.20
2022-10-20T02:10:34.316Z,53.90
2022-10-20T02:13:07.174Z,54.00
2022-10-20T02:15:38.506Z,54.00
2022-10-20T02:18:08.774Z,54.30
2022-10-20T02:20:41.283Z,54.10
2022-10-20T02:23:09.911Z,54.10
2022-10-20T02:25:39.817Z,54.20
2022-10-20T02:28:12.186Z,54.30
2022-10-20T02:30:41.083Z,54.20
2022-10-20T02:33:09.346Z,54.40
2022-10-20T02:35:37.100Z,54.50
2022-10-20T02:38:04.418Z,54.40
2022-10-20T02:40:34.283Z,54.50
2022-10-20T02:43:03.784Z,54.50
2022-10-20T02:45:31.074Z,54.60
2022-10-20T02:47:58.635Z,54.60
2022-10-20T02:50:25.952Z,54.50
2022-10-20T02:52:53.290Z,54.50
2022-10-20T02:55:20.531Z,54.40
2022-10-20T02:57:47.858Z,54.60
2022-10-20T03:00:15.311Z,54.70
2022-10-20T03:02:42.661Z,54.50
2022-10-20T03:05:09.924Z,54.50
2022-10-20T03:07:37.688Z,54.60
2022-10-20T03:10:05.811Z,54.70
2022-10-20T03:12:33.317Z,54.70
2022-10-20T03:15:00.695Z,54.70
2022-10-20T03:17:30.131Z,54.70
2022-10-20T03:19:57.438Z,54.90
2022-10-20T03:22:27.072Z,55.60
2022-10-20T03:24:56.625Z,54.90
2022-10-20T03:27:24.011Z,54.80
2022-10-20T03:29:51.457Z,54.90
2022-10-20T03:32:18.809Z,55.00
2022-10-20T03:34:46.088Z,55.10
2022-10-20T03:37:13.357Z,55.10
2022-10-20T03:39:40.746Z,55.10
2022-10-20T03:42:08.007Z,55.00
2022-10-20T03:44:38.218Z,55.00
2022-10-20T03:47:05.563Z,55.00
2022-10-20T03:49:35.323Z,55.00
2022-10-20T03:52:04.904Z,55.10
2022-10-20T03:54:36.669Z,55.20
2022-10-20T03:57:06.921Z,55.10
2022-10-20T03:59:35.325Z,55.10
2022-10-20T04:02:02.831Z,55.20
2022-10-20T04:04:32.416Z,55.10
2022-10-20T04:06:59.700Z,55.00
2022-10-20T04:09:26.961Z,55.20
2022-10-20T04:11:54.253Z,55.30
2022-10-20T04:14:21.582Z,55.40
2022-10-20T04:16:51.458Z,55.40
2022-10-20T04:19:18.920Z,55.40
2022-10-20T04:21:48.723Z,55.40
2022-10-20T04:24:18.195Z,55.40
2022-10-20T04:26:47.840Z,55.40
2022-10-20T04:29:15.100Z,55.40
2022-10-20T04:31:48.200Z,55.30
2022-10-20T04:34:16.555Z,55.50
2022-10-20T04:36:46.133Z,56.20
2022-10-20T04:39:15.664Z,55.50
2022-10-20T04:41:46.018Z,55.40
2022-10-20T04:44:13.578Z,55.40
2022-10-20T04:46:40.859Z,55.30
2022-10-20T04:49:08.155Z,55.40
2022-10-20T04:51:36.100Z,55.30
2022-10-20T04:56:37.903Z,55.30
2022-10-20T04:59:09.506Z,55.00
2022-10-20T05:01:40.015Z,55.10
2022-10-20T05:04:07.282Z,55.20
2022-10-20T05:06:34.695Z,55.10
2022-10-20T05:09:04.433Z,55.20
2022-10-20T05:11:35.412Z,55.20
2022-10-20T05:14:02.712Z,55.00
2022-10-20T05:16:32.239Z,55.10
2022-10-20T05:19:00.204Z,55.20
2022-10-20T05:21:32.709Z,55.10
2022-10-20T05:24:07.107Z,55.10
2022-10-20T05:26:37.193Z,55.20
2022-10-20T05:29:11.806Z,55.40
2022-10-20T05:31:41.340Z,55.30
2022-10-20T05:34:09.039Z,55.30
2022-10-20T05:36:39.013Z,55.50
2022-10-20T05:39:06.492Z,55.30
2022-10-20T05:41:37.882Z,55.40
2022-10-20T05:44:14.455Z,55.40
2022-10-20T05:46:46.049Z,55.30
2022-10-20T05:49:15.766Z,55.40
2022-10-20T05:51:44.868Z,55.50
2022-10-20T05:54:16.390Z,55.60
2022-10-20T05:56:44.274Z,55.70
2022-10-20T05:59:12.151Z,55.80
2022-10-20T06:01:47.623Z,55.70
2022-10-20T06:04:20.226Z,55.80
2022-10-20T06:06:49.037Z,55.70
2022-10-20T06:09:17.750Z,55.70
2022-10-20T06:11:45.142Z,55.80
2022-10-20T06:14:12.430Z,55.70
2022-10-20T06:16:39.729Z,55.80
2022-10-20T06:19:12.268Z,55.80
2022-10-20T06:21:39.596Z,56.50
2022-10-20T06:24:10.763Z,56.00
2022-10-20T06:26:40.843Z,56.00
2022-10-20T06:29:14.562Z,56.00
2022-10-20T06:31:54.895Z,56.10
2022-10-20T06:34:26.008Z,56.00
2022-10-20T06:36:53.810Z,56.10
2022-10-20T06:39:23.419Z,56.20
2022-10-20T06:41:52.557Z,56.30
2022-10-20T06:44:21.746Z,56.30
2022-10-20T06:46:49.515Z,55.90
2022-10-20T06:49:19.782Z,56.10
2022-10-20T06:51:49.545Z,56.00
2022-10-20T06:54:17.409Z,56.10
2022-10-20T06:56:44.721Z,56.20
2022-10-20T06:59:12.412Z,56.00
2022-10-20T07:01:42.422Z,56.10
2022-10-20T07:04:15.612Z,55.80
2022-10-20T07:06:45.206Z,55.80
2022-10-20T07:09:18.625Z,55.80
2022-10-20T07:11:52.930Z,55.90
2022-10-20T07:14:22.793Z,56.00
2022-10-20T07:16:52.208Z,56.00
2022-10-20T07:19:21.802Z,56.10
2022-10-20T07:21:49.069Z,55.80
2022-10-20T07:24:17.062Z,55.70
2022-10-20T07:26:44.356Z,55.90
2022-10-20T07:29:14.836Z,55.90
2022-10-20T07:31:47.083Z,55.80
2022-10-20T07:34:25.592Z,55.60
2022-10-20T07:36:54.983Z,55.20
2022-10-20T07:39:22.305Z,54.80
2022-10-20T07:41:49.740Z,54.80
2022-10-20T07:44:20.107Z,55.20
2022-10-20T07:46:47.443Z,54.70
2022-10-20T07:52:02.091Z,54.80
2022-10-20T07:54:29.453Z,54.70
2022-10-20T07:56:59.314Z,55.10
2022-10-20T07:59:29.630Z,54.80
2022-10-20T08:01:59.664Z,54.50
2022-10-20T08:04:28.048Z,54.70
2022-10-20T08:06:55.334Z,55.10
2022-10-20T08:09:24.992Z,54.90
2022-10-20T08:11:55.387Z,54.80
2022-10-20T08:14:31.952Z,54.30
2022-10-20T08:17:02.662Z,54.50
2022-10-20T08:22:21.775Z,53.70
2022-10-20T08:24:51.179Z,53.50
2022-10-20T08:27:20.752Z,53.50
2022-10-20T08:29:59.923Z,53.40
2022-10-20T08:32:34.237Z,53.30
2022-10-20T08:35:03.820Z,53.60
2022-10-20T08:37:31.879Z,54.30
2022-10-20T08:39:59.267Z,53.50
2022-10-20T08:42:29.695Z,53.60
2022-10-20T08:45:02.025Z,53.70
2022-10-20T08:47:36.932Z,52.90
2022-10-20T08:50:10.425Z,53.00
2022-10-20T08:52:41.045Z,53.20
2022-10-20T08:55:11.335Z,53.10
2022-10-20T08:57:43.687Z,53.30
2022-10-20T09:00:22.888Z,53.40
2022-10-20T09:02:52.482Z,53.20
2022-10-20T09:05:24.793Z,53.30
2022-10-20T09:07:52.921Z,53.30
2022-10-20T09:10:25.535Z,53.30
2022-10-20T09:12:53.396Z,52.90
2022-10-20T09:15:21.961Z,52.30
2022-10-20T09:17:55.737Z,52.50
2022-10-20T09:20:28.189Z,52.90
2022-10-20T09:22:55.678Z,52.90
2022-10-20T09:25:27.352Z,53.10
2022-10-20T09:27:56.431Z,52.90
2022-10-20T09:30:33.329Z,53.80
2022-10-20T09:33:03.911Z,53.00
2022-10-20T09:35:35.803Z,53.40
2022-10-20T09:38:07.392Z,53.00
2022-10-20T09:40:34.677Z,52.30
2022-10-20T09:43:16.724Z,53.40
2022-10-20T09:45:54.824Z,52.90
2022-10-20T09:48:25.845Z,51.50
2022-10-20T09:50:56.240Z,51.90
2022-10-20T09:53:50.485Z,51.70
2022-10-20T09:56:38.864Z,52.20
2022-10-20T09:59:33.068Z,52.00
2022-10-20T10:02:02.896Z,51.80
2022-10-20T10:04:39.115Z,51.90
2022-10-20T10:07:26.377Z,52.00
2022-10-20T10:10:08.328Z,52.20
2022-10-20T10:12:36.862Z,52.30
2022-10-20T10:15:10.656Z,51.90
2022-10-20T10:17:41.209Z,51.60
2022-10-20T10:20:39.041Z,51.20
2022-10-20T10:23:52.454Z,51.40
2022-10-20T10:26:37.704Z,51.50
2022-10-20T10:29:15.314Z,50.90
2022-10-20T10:32:04.982Z,51.30
2022-10-20T10:34:40.660Z,51.10
2022-10-20T10:37:15.071Z,51.70
2022-10-20T10:39:45.732Z,51.90
2022-10-20T10:42:27.313Z,51.30
2022-10-20T10:45:12.750Z,51.20
2022-10-20T10:48:10.647Z,51.20
2022-10-20T10:50:59.288Z,51.30
2022-10-20T10:53:45.130Z,50.90
2022-10-20T10:56:21.036Z,51.10
2022-10-20T10:58:58.389Z,51.00
2022-10-20T11:02:02.705Z,51.50
2022-10-20T11:04:43.673Z,51.70
2022-10-20T11:07:32.726Z,52.00
2022-10-20T11:10:30.948Z,51.70
2022-10-20T11:13:35.891Z,51.90
2022-10-20T11:16:19.404Z,51.60
2022-10-20T11:18:58.424Z,52.00
2022-10-20T11:21:56.721Z,51.70
2022-10-20T11:24:45.687Z,52.50
2022-10-20T11:27:41.895Z,51.10
2022-10-20T11:30:22.184Z,51.00
2022-10-20T11:32:55.551Z,50.90
2022-10-20T11:35:36.090Z,51.10
2022-10-20T11:38:18.636Z,51.30
2022-10-20T11:40:57.776Z,51.60
2022-10-20T11:43:30.983Z,51.50
2022-10-20T11:46:16.175Z,51.30
2022-10-20T11:48:59.127Z,51.30
2022-10-20T11:51:32.134Z,51.80
2022-10-20T11:54:17.825Z,51.10
2022-10-20T11:57:06.485Z,50.60
2022-10-20T12:00:04.815Z,50.50
2022-10-20T12:02:47.079Z,50.80
2022-10-20T12:05:54.423Z,51.10
2022-10-20T12:08:33.133Z,51.10
2022-10-20T12:11:17.304Z,50.60
2022-10-20T12:14:14.873Z,50.20
2022-10-20T12:16:54.284Z,50.90
2022-10-20T12:19:37.376Z,50.30
2022-10-20T12:22:16.834Z,50.30
2022-10-20T12:24:53.102Z,50.20
2022-10-20T12:27:27.707Z,50.40
2022-10-20T12:30:18.021Z,50.80
2022-10-20T12:33:00.845Z,50.00
2022-10-20T12:35:49.932Z,50.00
2022-10-20T12:38:19.243Z,50.30
2022-10-20T12:40:52.006Z,50.20
2022-10-20T12:43:37.432Z,50.10
2022-10-20T12:46:10.971Z,50.30
2022-10-20T12:48:47.898Z,50.20
2022-10-20T12:51:38.250Z,50.60
2022-10-20T12:54:28.339Z,51.20
2022-10-20T12:57:01.633Z,51.00
2022-10-20T12:59:28.922Z,51.10
2022-10-20T13:02:11.543Z,50.90
2022-10-20T13:05:01.817Z,51.20
2022-10-20T13:08:21.638Z,51.10
2022-10-20T13:10:49.535Z,51.40
2022-10-20T13:13:19.645Z,51.20
2022-10-20T13:15:54.958Z,51.20
2022-10-20T13:18:38.444Z,51.30
2022-10-20T13:21:14.684Z,51.70
2022-10-20T13:23:41.939Z,52.20
2022-10-20T13:26:43.835Z,51.70
2022-10-20T13:29:20.549Z,51.80
2022-10-20T13:31:52.193Z,52.20
2022-10-20T13:34:26.928Z,51.90
2022-10-20T13:37:11.924Z,51.70
2022-10-20T13:39:44.688Z,51.60
2022-10-20T13:42:40.223Z,51.50
2022-10-20T13:45:34.923Z,52.00
2022-10-20T13:48:29.420Z,52.20
2022-10-20T13:51:02.871Z,52.10
2022-10-20T13:53:40.376Z,52.00
2022-10-20T13:56:22.696Z,51.50
2022-10-20T13:59:18.449Z,51.70
2022-10-20T14:01:49.864Z,51.40
2022-10-20T14:04:29.583Z,51.30
2022-10-20T14:07:08.699Z,51.20
2022-10-20T14:09:36.201Z,51.20
2022-10-20T14:12:21.980Z,51.10
2022-10-20T14:14:49.436Z,51.20
2022-10-20T14:17:24.428Z,51.20
2022-10-20T14:20:07.720Z,51.40
2022-10-20T14:22:35.718Z,51.40
2022-10-20T14:25:07.939Z,51.50
2022-10-20T14:27:36.983Z,51.30
2022-10-20T14:30:16.675Z,51.40
2022-10-20T14:32:45.592Z,51.50
2022-10-20T14:35:18.539Z,51.30
2022-10-20T14:37:52.920Z,51.20
2022-10-20T14:40:20.209Z,51.50
2022-10-20T14:42:47.941Z,51.50
2022-10-20T14:45:28.940Z,51.80
2022-10-20T14:48:16.109Z,52.00
2022-10-20T14:50:43.498Z,52.00
2022-10-20T14:53:25.114Z,52.20
2022-10-20T14:55:52.484Z,51.70
2022-10-20T14:58:52.224Z,51.70
2022-10-20T15:01:29.425Z,52.00
2022-10-20T15:12:53.129Z,52.10
2022-10-20T15:15:36.457Z,52.20
2022-10-20T15:18:06.901Z,52.20
2022-10-20T15:24:25.999Z,52.50
2022-10-20T15:26:55.418Z,52.50
2022-10-20T15:29:22.797Z,52.30
2022-10-20T15:31:53.653Z,52.60
2022-10-20T15:34:21.220Z,52.50
2022-10-20T15:36:50.348Z,52.50
2022-10-20T15:39:20.791Z,52.50
2022-10-20T15:41:50.332Z,52.50
2022-10-20T15:44:22.284Z,52.70
2022-10-20T15:46:54.719Z,52.60
2022-10-20T15:49:22.734Z,52.50
2022-10-20T15:51:52.913Z,52.70
2022-10-20T15:54:24.504Z,52.80
2022-10-20T15:56:51.759Z,52.70
2022-10-20T15:59:19.008Z,53.00
2022-10-20T16:01:48.438Z,52.70
2022-10-20T16:04:17.355Z,52.80
2022-10-20T16:06:47.224Z,52.90
2022-10-20T16:09:16.097Z,52.90
2022-10-20T16:11:44.676Z,52.90
2022-10-20T16:14:15.572Z,53.10
2022-10-20T16:16:44.981Z,53.20
2022-10-20T16:19:12.726Z,53.00
2022-10-20T16:21:40.097Z,52.90
2022-10-20T16:24:11.157Z,53.10
2022-10-20T16:26:38.434Z,53.10
2022-10-20T16:29:05.819Z,52.90
2022-10-20T16:31:33.083Z,52.90
2022-10-20T16:34:00.518Z,53.00
2022-10-20T16:36:27.848Z,53.00
2022-10-20T16:38:57.809Z,52.90
2022-10-20T16:41:25.402Z,52.80
2022-10-20T16:43:57.489Z,52.80
2022-10-20T16:46:28.408Z,52.80
2022-10-20T16:48:57.237Z,53.00
2022-10-20T16:51:24.753Z,53.30
2022-10-20T16:53:57.373Z,53.30
2022-10-20T16:56:26.807Z,53.20
2022-10-20T16:58:59.017Z,53.20
2022-10-20T17:01:31.822Z,53.30
2022-10-20T17:03:59.120Z,53.40
2022-10-20T17:06:29.372Z,53.30
2022-10-20T17:08:58.829Z,53.30
2022-10-20T17:11:28.557Z,53.10
2022-10-20T17:13:59.066Z,53.20
2022-10-20T17:16:29.101Z,53.40
2022-10-20T17:18:57.860Z,53.30
2022-10-20T17:21:27.682Z,53.40
2022-10-20T17:23:55.056Z,53.50
2022-10-20T17:26:24.042Z,53.60
2022-10-20T17:28:55.190Z,53.60
2022-10-20T17:31:25.078Z,53.50
2022-10-20T17:33:52.906Z,53.60
2022-10-20T17:36:25.904Z,53.70
2022-10-20T17:39:02.275Z,53.80
2022-10-20T17:41:30.371Z,53.80
2022-10-20T17:44:00.869Z,54.00
2022-10-20T17:46:28.448Z,53.90
2022-10-20T17:48:56.186Z,53.80
2022-10-20T17:51:28.992Z,53.90
2022-10-20T17:54:01.503Z,54.00
2022-10-20T17:56:32.053Z,54.10
2022-10-20T17:59:00.662Z,54.20
2022-10-20T18:01:32.572Z,54.20
2022-10-20T18:04:06.313Z,54.20
2022-10-20T18:06:35.213Z,54.30
2022-10-20T18:09:08.345Z,54.30
2022-10-20T18:11:36.619Z,54.40
2022-10-20T18:14:04.817Z,54.30
2022-10-20T18:16:34.941Z,54.30
2022-10-20T18:19:02.722Z,54.40
2022-10-20T18:21:30.992Z,54.30
2022-10-20T18:24:02.288Z,54.30
2022-10-20T18:26:31.725Z,54.40
2022-10-20T18:29:00.115Z,54.50
2022-10-20T18:31:30.644Z,54.60
2022-10-20T18:34:04.384Z,54.60
2022-10-20T18:36:33.771Z,54.70
2022-10-20T18:39:01.396Z,54.60
2022-10-20T18:41:31.149Z,54.70
2022-10-20T18:44:00.511Z,54.70
2022-10-20T18:46:29.923Z,54.80
2022-10-20T18:48:58.916Z,54.70
2022-10-20T18:51:27.055Z,54.60
2022-10-20T18:53:56.311Z,54.70
2022-10-20T18:56:26.136Z,54.70
2022-10-20T18:59:05.144Z,55.00
2022-10-20T19:01:36.856Z,54.70
2022-10-20T19:04:05.595Z,54.80
2022-10-20T19:06:37.904Z,54.90
2022-10-20T19:09:08.751Z,54.80
2022-10-20T19:11:38.338Z,54.80
2022-10-20T19:14:09.595Z,54.90
2022-10-20T19:16:38.100Z,54.80
2022-10-20T19:19:06.729Z,55.40
2022-10-20T19:21:34.935Z,54.80
2022-10-20T19:24:05.944Z,54.80
2022-10-20T19:26:39.957Z,55.00
2022-10-20T19:29:15.743Z,55.10
2022-10-20T19:32:06.071Z,55.00
2022-10-20T19:34:39.948Z,55.10
2022-10-20T19:37:08.282Z,55.00
2022-10-20T19:39:41.517Z,54.90
2022-10-20T19:42:09.510Z,55.00
2022-10-20T19:44:36.960Z,55.10
2022-10-20T19:47:08.304Z,55.10
2022-10-20T19:49:36.135Z,55.20
2022-10-20T19:52:06.495Z,55.00
2022-10-20T19:54:34.406Z,55.10
2022-10-20T19:57:01.819Z,55.10
2022-10-20T19:59:29.169Z,55.20
2022-10-20T20:01:56.720Z,55.20
2022-10-20T20:04:24.039Z,55.10
2022-10-20T20:06:51.313Z,55.10
2022-10-20T20:09:21.049Z,55.20
2022-10-20T20:11:50.962Z,55.40
2022-10-20T20:14:19.668Z,55.40
2022-10-20T20:16:47.923Z,55.40
2022-10-20T20:19:17.121Z,55.30
2022-10-20T20:21:46.749Z,55.40
2022-10-20T20:24:14.536Z,55.50
2022-10-20T20:26:42.150Z,55.50
2022-10-20T20:29:14.415Z,55.60
2022-10-20T20:31:41.765Z,55.60
2022-10-20T20:34:11.551Z,55.70
2022-10-20T20:36:39.532Z,56.20
2022-10-20T20:39:07.431Z,55.60
2022-10-20T20:41:34.904Z,55.50
2022-10-20T20:44:08.207Z,55.70
2022-10-20T20:46:36.409Z,55.60
2022-10-20T20:49:03.992Z,55.70
2022-10-20T20:51:33.894Z,55.70
2022-10-20T20:54:05.763Z,55.80
2022-10-20T20:56:32.960Z,55.80
2022-10-20T20:59:00.134Z,56.50
2022-10-20T21:01:31.906Z,55.50
2022-10-20T21:04:02.881Z,55.60
2022-10-20T21:06:56.668Z,55.70
2022-10-20T21:09:20.252Z,55.80
2022-10-20T21:11:50.103Z,55.70
2022-10-20T21:14:17.379Z,55.80
2022-10-20T21:16:45.082Z,55.80
2022-10-20T21:19:12.360Z,55.80
2022-10-20T21:21:44.614Z,55.90
2022-10-20T21:27:25.074Z,56.10
2022-10-20T21:29:59.918Z,56.00
2022-10-20T21:32:40.185Z,55.90
2022-10-20T21:35:10.652Z,56.20
2022-10-20T21:38:04.835Z,56.20
2022-10-20T21:40:39.822Z,56.20
2022-10-20T21:43:24.760Z,56.30
2022-10-20T21:46:24.853Z,56.30
2022-10-20T21:49:28.506Z,56.30
2022-10-20T21:52:08.283Z,56.10
2022-10-20T21:55:03.511Z,56.10
2022-10-20T21:57:49.225Z,56.10
2022-10-20T22:00:52.164Z,56.30
2022-10-20T22:03:36.036Z,56.10
2022-10-20T22:06:25.153Z,56.20
2022-10-20T22:09:20.562Z,56.40
2022-10-20T22:12:14.248Z,56.30
2022-10-20T22:17:41.759Z,56.40
2022-10-20T22:20:43.317Z,56.40
2022-10-20T22:23:29.189Z,56.50
2022-10-20T22:26:11.185Z,56.40
2022-10-20T22:28:59.540Z,56.40
2022-10-20T22:31:35.278Z,56.40
2022-10-20T22:34:37.106Z,56.50
2022-10-20T22:37:34.141Z,56.50
2022-10-20T22:43:01.048Z,56.60
2022-10-20T22:51:28.036Z,56.90
2022-10-20T22:54:09.918Z,56.90
2022-10-20T22:56:54.087Z,57.00
2022-10-20T23:02:11.012Z,56.90
2022-10-20T23:07:46.811Z,57.00
2022-10-20T23:13:04.727Z,57.00
2022-10-20T23:18:51.009Z,57.20
2022-10-20T23:21:42.875Z,57.30
2022-10-20T23:24:18.105Z,57.30
2022-10-20T23:26:58.910Z,57.40
2022-10-20T23:35:35.309Z,57.30
2022-10-20T23:38:03.301Z,57.50
2022-10-20T23:40:30.946Z,57.50
2022-10-20T23:42:58.232Z,57.40
2022-10-20T23:45:25.737Z,57.40
2022-10-20T23:48:03.059Z,57.40
2022-10-20T23:50:57.120Z,57.60
2022-10-20T23:53:42.223Z,57.60
2022-10-20T23:56:27.685Z,57.50
